Time;durP1;ratioP1;P1;durP2;ratioP2;P2;SDS_P1;SDS_P2;PMS_P1;PMS_P2;Temp;Humidity;BMP_temperature;BMP_pressure;BME280_temperature;BME280_humidity;BME280_pressure;Samples;Min_cycle;Max_cycle;Signal;HPM_P1;HPM_P2
2021/09/26 00:03:25;;;;;;;10.10;9.30;;;;;;;15.21;100.00;100823.72;20829433;28;20224;-65
2021/09/26 00:13:27;;;;;;;10.23;9.33;;;;;;;15.21;100.00;100828.25;20828658;28;20774;-63
2021/09/26 00:23:32;;;;;;;8.83;8.13;;;;;;;15.19;100.00;100831.06;20825592;28;20850;-64
2021/09/26 00:33:35;;;;;;;8.27;7.53;;;;;;;15.20;100.00;100837.28;20827135;28;20227;-63
2021/09/26 00:43:38;;;;;;;8.97;8.27;;;;;;;15.12;100.00;100840.53;20826378;28;20746;-63
2021/09/26 00:53:42;;;;;;;7.83;7.23;;;;;;;15.07;100.00;100843.59;20823881;28;20805;-63
2021/09/26 01:03:46;;;;;;;8.37;7.73;;;;;;;14.97;100.00;100841.69;20824681;28;20227;-63
2021/09/26 01:13:55;;;;;;;9.27;8.53;;;;;;;14.76;100.00;100839.59;20824038;28;20324;-64
2021/09/26 01:24:19;;;;;;;8.10;7.50;;;;;;;14.47;100.00;100846.25;20823476;28;20229;-63
2021/09/26 01:34:27;;;;;;;8.27;7.57;;;;;;;14.02;100.00;100851.19;20828037;28;20353;-64
2021/09/26 01:44:34;;;;;;;8.07;7.37;;;;;;;13.49;100.00;100859.41;20822228;28;20245;-63
2021/09/26 01:54:38;;;;;;;9.40;8.60;;;;;;;13.03;100.00;100866.94;20821365;28;20709;-63
2021/09/26 02:04:40;;;;;;;8.27;7.57;;;;;;;12.68;100.00;100879.94;20819317;28;20219;-63
2021/09/26 02:14:44;;;;;;;58.47;6.50;;;;;;;12.42;100.00;100878.94;20886680;28;20259;-62
2021/09/26 02:24:47;;;;;;;6.60;6.00;;;;;;;12.07;100.00;100898.03;20900317;28;20224;-63
2021/09/26 02:34:51;;;;;;;14.77;5.10;;;;;;;11.78;100.00;100894.44;20901487;28;20231;-62
2021/09/26 02:45:00;;;;;;;25.77;6.80;;;;;;;11.52;100.00;100890.59;20888569;28;20549;-63
2021/09/26 02:55:04;;;;;;;7.90;5.57;;;;;;;11.30;100.00;100895.50;20916105;28;20263;-67
2021/09/26 03:05:08;;;;;;;13.70;5.97;;;;;;;11.02;100.00;100900.69;20916024;28;20227;-63
2021/09/26 03:15:12;;;;;;;6.60;5.83;;;;;;;10.81;100.00;100913.44;20914613;28;20238;-63
2021/09/26 03:25:15;;;;;;;7.83;5.37;;;;;;;10.64;100.00;100917.03;20914102;28;20647;-65
2021/09/26 03:35:19;;;;;;;7.33;5.53;;;;;;;10.55;100.00;100922.03;20913570;28;20256;-63
2021/09/26 03:45:21;;;;;;;10.10;5.73;;;;;;;10.39;100.00;100927.31;20912870;28;20614;-62
2021/09/26 03:55:25;;;;;;;9.33;5.50;;;;;;;10.21;100.00;100942.50;20911710;28;20252;-70
2021/09/26 04:05:27;;;;;;;28.00;7.67;;;;;;;10.08;100.00;100936.06;20911471;28;20574;-62
2021/09/26 04:15:31;;;;;;;14.03;6.80;;;;;;;9.89;100.00;100937.97;20910168;28;20258;-64
2021/09/26 04:25:34;;;;;;;40.37;10.07;;;;;;;9.83;100.00;100944.47;20908352;28;20733;-63
2021/09/26 04:35:38;;;;;;;16.70;8.57;;;;;;;9.84;100.00;100950.66;20909077;28;20293;-63
2021/09/26 04:45:40;;;;;;;9.13;6.90;;;;;;;9.92;100.00;100951.13;20893136;28;20430;-63
2021/09/26 04:55:44;;;;;;;18.70;8.47;;;;;;;10.15;100.00;100955.25;20907098;28;20223;-62
2021/09/26 05:05:46;;;;;;;10.17;6.60;;;;;;;10.36;100.00;100964.84;20905335;28;20242;-63
2021/09/26 05:15:50;;;;;;;10.37;6.53;;;;;;;10.72;100.00;100980.69;20905942;28;20223;-63
2021/09/26 05:25:52;;;;;;;13.60;6.03;;;;;;;11.32;100.00;100980.91;20905213;28;20235;-61
2021/09/26 05:35:56;;;;;;;20.23;6.77;;;;;;;11.67;100.00;100977.06;20885738;28;20227;-62
2021/09/26 05:45:58;;;;;;;8.27;7.27;;;;;;;11.64;100.00;101006.66;20903662;28;20591;-61
2021/09/26 05:56:02;;;;;;;8.50;7.50;;;;;;;11.76;100.00;101003.28;20903135;28;20254;-62
2021/09/26 06:06:04;;;;;;;6.50;6.00;;;;;;;11.92;100.00;100995.25;20819521;28;20224;-61
2021/09/26 06:16:08;;;;;;;7.63;6.93;;;;;;;12.31;100.00;101008.06;20821103;28;20640;-63
2021/09/26 06:26:10;;;;;;;6.87;6.37;;;;;;;12.95;100.00;101030.84;20834838;28;20257;-63
2021/09/26 06:36:14;;;;;;;7.40;6.77;;;;;;;13.65;100.00;101047.81;20811452;28;20227;-62
2021/09/26 06:46:16;;;;;;;7.47;6.80;;;;;;;14.29;100.00;101055.13;20830829;28;20782;-57
2021/09/26 06:56:20;;;;;;;7.23;6.63;;;;;;;14.86;100.00;101073.56;20849556;28;20231;-58
2021/09/26 07:06:22;;;;;;;6.30;5.80;;;;;;;15.45;100.00;101079.22;20827143;28;20303;-62
2021/09/26 07:16:26;;;;;;;4.47;4.07;;;;;;;15.99;100.00;101082.41;20831668;28;20228;-60
2021/09/26 07:26:29;;;;;;;3.20;2.70;;;;;;;16.41;100.00;101094.47;20824233;28;20231;-59
2021/09/26 07:36:32;;;;;;;2.67;2.20;;;;;;;16.71;100.00;101101.19;20823475;28;20232;-65
2021/09/26 07:46:35;;;;;;;2.23;2.03;;;;;;;17.12;100.00;101103.34;20807543;28;20290;-60
2021/09/26 07:56:39;;;;;;;2.73;2.13;;;;;;;17.53;100.00;101118.91;20835623;28;20223;-65
2021/09/26 08:06:41;;;;;;;2.50;1.63;;;;;;;17.79;100.00;101115.00;20799350;28;20996;-67
2021/09/26 08:16:45;;;;;;;3.40;1.87;;;;;;;18.02;100.00;101132.00;20777645;28;20284;-59
2021/09/26 08:26:47;;;;;;;3.20;1.90;;;;;;;18.18;100.00;101137.88;20771250;28;20693;-59
2021/09/26 08:36:52;;;;;;;2.13;1.63;;;;;;;18.42;100.00;101139.50;20772749;28;20234;-60
2021/09/26 08:46:56;;;;;;;1.97;1.60;;;;;;;18.77;100.00;101145.50;20737056;28;20219;-61
2021/09/26 08:57:00;;;;;;;2.33;1.70;;;;;;;19.41;100.00;101143.50;20790878;28;20231;-60
2021/09/26 09:07:04;;;;;;;2.43;1.87;;;;;;;20.23;100.00;101148.75;20829513;28;20242;-60
2021/09/26 09:17:07;;;;;;;1.50;1.23;;;;;;;21.68;100.00;101157.59;20840281;28;20235;-60
2021/09/26 09:27:10;;;;;;;2.27;1.43;;;;;;;22.73;100.00;101162.50;20842529;28;20245;-63
2021/09/26 09:37:16;;;;;;;1.53;1.30;;;;;;;22.83;100.00;101153.28;20812096;28;20298;-66
2021/09/26 09:47:21;;;;;;;1.80;1.40;;;;;;;21.66;100.00;101156.91;20814908;28;20271;-61
2021/09/26 09:57:26;;;;;;;1.60;1.30;;;;;;;22.05;100.00;101152.16;20806794;28;20255;-60
2021/09/26 10:07:30;;;;;;;1.67;1.40;;;;;;;23.49;100.00;101160.06;20786466;28;20223;-65
2021/09/26 10:17:35;;;;;;;1.40;1.30;;;;;;;24.00;100.00;101153.69;20785241;28;20326;-66
2021/09/26 10:27:38;;;;;;;2.13;1.23;;;;;;;23.79;100.00;101156.81;20812092;28;20822;-68
2021/09/26 10:37:42;;;;;;;2.20;1.50;;;;;;;24.03;100.00;101159.63;20822503;28;20243;-70
2021/09/26 10:47:56;;;;;;;1.87;1.40;;;;;;;24.56;100.00;101147.50;20813162;28;20220;-69
2021/09/26 10:58:19;;;;;;;1.48;1.20;;;;;;;25.46;100.00;101143.72;20755834;28;20710;-70
2021/09/26 11:08:42;;;;;;;1.70;1.13;;;;;;;25.01;100.00;101157.09;20799708;28;20976;-68
2021/09/26 11:18:58;;;;;;;2.03;1.60;;;;;;;23.86;100.00;101154.31;20782489;28;20232;-65
2021/09/26 11:29:00;;;;;;;1.80;1.30;;;;;;;22.75;100.00;101155.91;20804885;28;20220;-64
2021/09/26 11:49:34;;;;;;;1.43;1.10;;;;;;;23.49;100.00;101149.16;21104883;27;20656;-64
2021/09/26 11:59:38;;;;;;;1.30;1.20;;;;;;;24.85;100.00;101132.53;21098897;27;20248;-64
2021/09/26 12:09:45;;;;;;;2.43;1.30;;;;;;;24.50;100.00;101134.56;21181035;27;20223;-62
2021/09/26 12:19:48;;;;;;;2.40;1.47;;;;;;;23.22;100.00;101123.78;21217754;27;20775;-62
2021/09/26 12:29:54;;;;;;;1.50;1.40;;;;;;;22.09;100.00;101120.09;21111647;27;20248;-66
2021/09/26 12:39:58;;;;;;;2.47;1.80;;;;;;;20.70;100.00;101110.97;21137591;27;20583;-64
2021/09/26 12:50:04;;;;;;;1.90;1.67;;;;;;;19.77;100.00;101112.31;21136263;27;20231;-62
2021/09/26 13:00:21;;;;;;;2.93;1.70;;;;;;;19.31;100.00;101102.00;21086078;27;20229;-61
2021/09/26 13:10:26;;;;;;;2.10;1.60;;;;;;;19.50;100.00;101101.25;21081268;27;20305;-62
2021/09/26 13:20:30;;;;;;;1.83;1.30;;;;;;;20.13;100.00;101093.69;21080200;27;20294;-61
2021/09/26 13:30:36;;;;;;;2.80;1.70;;;;;;;20.10;100.00;101088.56;21079349;27;20241;-61
2021/09/26 13:40:42;;;;;;;1.80;1.43;;;;;;;20.00;100.00;101087.69;21078396;27;20226;-62
2021/09/26 13:50:46;;;;;;;2.07;1.70;;;;;;;19.90;100.00;101084.09;21057731;27;20317;-62
2021/09/26 14:00:51;;;;;;;2.87;1.60;;;;;;;19.87;100.00;101076.25;20993188;28;20234;-62
2021/09/26 14:10:55;;;;;;;2.00;1.57;;;;;;;19.85;100.00;101075.53;20991761;28;20540;-62
2021/09/26 14:20:58;;;;;;;1.47;1.37;;;;;;;19.78;100.00;101073.41;20992070;28;20783;-61
2021/09/26 14:31:02;;;;;;;1.90;1.60;;;;;;;19.67;100.00;101078.94;20991291;28;20229;-61
2021/09/26 14:41:04;;;;;;;2.17;1.23;;;;;;;19.59;100.00;101089.59;20988425;28;20223;-65
2021/09/26 14:51:11;;;;;;;1.63;1.10;;;;;;;19.53;100.00;101090.16;20989606;28;20237;-61
2021/09/26 15:01:14;;;;;;;1.70;1.60;;;;;;;19.55;100.00;101077.34;21032935;28;20225;-62
2021/09/26 15:11:18;;;;;;;1.63;1.30;;;;;;;19.52;100.00;101091.13;21069295;28;20228;-63
2021/09/26 15:21:21;;;;;;;2.40;1.73;;;;;;;19.29;100.00;101086.88;21070234;28;20665;-61
2021/09/26 15:31:24;;;;;;;1.40;1.30;;;;;;;18.90;100.00;101085.81;21070566;28;20217;-64
2021/09/26 15:41:28;;;;;;;1.67;1.50;;;;;;;18.43;100.00;101069.13;21070125;28;20218;-61
2021/09/26 15:51:32;;;;;;;1.77;1.67;;;;;;;17.92;100.00;101077.91;21070122;28;20226;-64
2021/09/26 16:01:34;;;;;;;3.37;2.07;;;;;;;17.31;100.00;101076.63;21069461;28;20248;-67
2021/09/26 16:11:38;;;;;;;2.30;2.10;;;;;;;16.64;100.00;101075.72;21070030;28;20214;-70
2021/09/26 16:21:41;;;;;;;2.33;2.10;;;;;;;16.00;100.00;101073.34;21070331;28;20242;-64
2021/09/26 16:31:45;;;;;;;2.60;2.00;;;;;;;15.44;100.00;101078.38;21077456;28;20231;-64
2021/09/26 16:41:48;;;;;;;3.10;2.23;;;;;;;14.94;100.00;101073.91;21083997;28;20466;-61
2021/09/26 16:51:53;;;;;;;2.80;2.33;;;;;;;14.51;100.00;101075.16;21083304;28;20593;-63
2021/09/26 17:01:55;;;;;;;4.10;3.00;;;;;;;14.14;100.00;101077.63;21082000;28;20229;-61
2021/09/26 17:12:00;;;;;;;4.47;2.83;;;;;;;13.83;100.00;101077.94;21081445;28;20233;-64
2021/09/26 17:22:02;;;;;;;5.30;3.17;;;;;;;13.56;100.00;101091.31;21080384;28;20257;-63
2021/09/26 17:32:07;;;;;;;6.43;3.43;;;;;;;13.26;100.00;101084.28;21079955;28;20228;-64
2021/09/26 17:42:10;;;;;;;4.57;3.83;;;;;;;13.05;100.00;101090.94;21077536;28;20228;-61
2021/09/26 17:52:14;;;;;;;4.93;3.47;;;;;;;12.82;100.00;101094.19;21080174;28;20241;-61
2021/09/26 18:02:16;;;;;;;4.87;3.87;;;;;;;12.62;100.00;101088.22;21079003;28;20230;-65
2021/09/26 18:12:21;;;;;;;4.90;4.40;;;;;;;12.46;100.00;101086.56;21076636;28;20274;-62
2021/09/26 18:22:23;;;;;;;5.47;3.90;;;;;;;12.24;100.00;101098.53;21075685;28;20325;-62
2021/09/26 18:32:30;;;;;;;6.33;4.07;;;;;;;12.05;100.00;101113.09;21075666;28;20238;-62
2021/09/26 18:42:32;;;;;;;5.03;4.27;;;;;;;11.87;100.00;101115.84;21074242;28;20233;-63
2021/09/26 18:52:37;;;;;;;5.00;4.60;;;;;;;11.72;100.00;101121.16;21050473;27;20630;-63
2021/09/26 19:02:41;;;;;;;6.17;4.70;;;;;;;11.66;100.00;101113.50;21033508;27;20657;-62
2021/09/26 19:12:47;;;;;;;5.93;4.60;;;;;;;11.56;100.00;101123.84;21069670;27;20976;-67
2021/09/26 19:22:49;;;;;;;4.47;4.03;;;;;;;11.27;100.00;101113.88;21004699;27;20231;-62
2021/09/26 19:32:57;;;;;;;3.80;3.30;;;;;;;10.96;100.00;101115.56;21024261;27;20233;-66
2021/09/26 19:42:59;;;;;;;5.20;4.03;;;;;;;10.82;100.00;101120.75;21001768;27;20723;-64
2021/09/26 19:53:05;;;;;;;4.57;3.80;;;;;;;10.72;100.00;101127.53;21019147;27;20233;-61
2021/09/26 20:03:09;;;;;;;4.87;3.63;;;;;;;10.67;100.00;101129.56;21061469;27;20230;-62
2021/09/26 20:13:16;;;;;;;5.20;3.60;;;;;;;10.46;100.00;101126.19;21086111;27;20229;-62
2021/09/26 20:23:18;;;;;;;4.67;3.60;;;;;;;10.35;100.00;101140.06;21085193;27;20233;-65
2021/09/26 20:33:23;;;;;;;6.50;4.20;;;;;;;10.13;100.00;101159.84;21084651;27;20316;-64
2021/09/26 20:43:25;;;;;;;4.77;3.77;;;;;;;10.07;100.00;101161.00;21080701;27;20797;-62
2021/09/26 20:53:29;;;;;;;5.80;3.80;;;;;;;9.96;100.00;101161.53;21066612;27;20586;-65
2021/09/26 21:03:33;;;;;;;5.47;4.20;;;;;;;9.88;100.00;101182.38;21166416;27;20231;-62
2021/09/26 21:13:37;;;;;;;3.80;3.40;;;;;;;9.70;100.00;101184.09;21165445;27;20230;-62
2021/09/26 21:23:40;;;;;;;7.77;5.07;;;;;;;9.68;100.00;101180.63;21165244;27;20238;-65
2021/09/26 21:33:43;;;;;;;8.97;6.13;;;;;;;9.79;100.00;101195.25;21164249;27;20270;-62
2021/09/26 21:43:46;;;;;;;6.50;5.67;;;;;;;9.80;100.00;101189.84;21150727;27;20301;-62
2021/09/26 21:53:50;;;;;;;6.90;5.37;;;;;;;9.71;100.00;101180.50;21162750;27;20216;-63
2021/09/26 22:03:52;;;;;;;6.77;5.10;;;;;;;9.74;100.00;101191.03;21161868;27;20236;-65
2021/09/26 22:13:58;;;;;;;6.93;5.90;;;;;;;9.61;100.00;101181.88;21148746;27;20299;-72
2021/09/26 22:24:02;;;;;;;5.97;5.17;;;;;;;9.48;100.00;101191.38;21151786;27;20223;-62
2021/09/26 22:34:07;;;;;;;5.33;4.43;;;;;;;9.42;100.00;101204.94;21158412;27;20776;-62
2021/09/26 22:44:09;;;;;;;4.60;4.20;;;;;;;9.29;100.00;101187.81;21158115;27;20231;-63
2021/09/26 22:54:13;;;;;;;4.83;4.03;;;;;;;9.14;100.00;101188.50;21124278;27;20330;-65
2021/09/26 23:04:15;;;;;;;4.90;4.40;;;;;;;9.06;100.00;101186.16;21156650;27;20218;-64
2021/09/26 23:14:19;;;;;;;5.47;4.97;;;;;;;8.98;100.00;101186.50;21116669;27;20231;-65
2021/09/26 23:24:21;;;;;;;5.83;4.80;;;;;;;8.82;100.00;101182.75;21071326;28;20229;-62
2021/09/26 23:34:25;;;;;;;6.30;4.90;;;;;;;8.65;100.00;101172.00;21098279;27;20247;-62
2021/09/26 23:44:27;;;;;;;6.10;4.60;;;;;;;8.54;100.00;101172.44;21152982;27;20224;-62
2021/09/26 23:54:31;;;;;;;4.83;4.33;;;;;;;8.71;100.00;101162.88;21148472;27;20637;-62
